Time;durP1;ratioP1;P1;durP2;ratioP2;P2;SDS_P1;SDS_P2;PMS_P1;PMS_P2;Temp;Humidity;BMP_temperature;BMP_pressure;BME280_temperature;BME280_humidity;BME280_pressure;Samples;Min_cycle;Max_cycle;Signal;HPM_P1;HPM_P2
2023/10/19 00:00:48;;;;;;;55.42;32.88;;;7.40;99.90;;;;;;4991421;28;20375;-62
2023/10/19 00:03:15;;;;;;;60.00;31.60;;;7.50;99.90;;;;;;4996990;28;20026;-63
2023/10/19 00:05:45;;;;;;;65.50;33.95;;;7.50;99.90;;;;;;4993695;28;20064;-62
2023/10/19 00:10:45;;;;;;;57.45;32.97;;;7.50;99.90;;;;;;4998089;28;20045;-62
2023/10/19 00:13:11;;;;;;;55.63;34.15;;;7.50;99.90;;;;;;4999225;28;20540;-62
2023/10/19 00:15:51;;;;;;;56.58;34.28;;;7.40;99.90;;;;;;4994690;28;20037;-62
2023/10/19 00:20:52;;;;;;;84.28;36.67;;;7.40;99.90;;;;;;4999118;28;20018;-62
2023/10/19 00:23:18;;;;;;;76.20;36.90;;;7.50;99.90;;;;;;4995466;28;20065;-61
2023/10/19 00:25:49;;;;;;;74.00;37.47;;;7.50;99.90;;;;;;4994847;28;20340;-62
2023/10/19 00:28:17;;;;;;;65.35;36.50;;;7.50;99.90;;;;;;4998512;28;20026;-62
2023/10/19 00:30:44;;;;;;;78.53;37.78;;;7.50;99.90;;;;;;4995485;28;20026;-62
2023/10/19 00:33:18;;;;;;;75.57;38.80;;;7.40;99.90;;;;;;4996022;28;20603;-61
2023/10/19 00:38:39;;;;;;;82.55;42.03;;;7.40;99.90;;;;;;4998537;28;20090;-62
2023/10/19 00:41:11;;;;;;;99.18;43.45;;;7.40;99.90;;;;;;4998021;28;20089;-62
2023/10/19 00:43:45;;;;;;;98.03;43.63;;;7.40;99.90;;;;;;4996762;28;20113;-62
2023/10/19 00:48:53;;;;;;;101.43;45.97;;;7.40;99.90;;;;;;4998375;28;20030;-62
2023/10/19 00:53:59;;;;;;;102.28;44.90;;;7.40;99.90;;;;;;4999533;28;20383;-62
2023/10/19 00:56:32;;;;;;;91.40;45.10;;;7.40;99.90;;;;;;4997300;28;20035;-62
2023/10/19 00:59:14;;;;;;;91.15;45.30;;;7.40;99.90;;;;;;4998276;28;20122;-61
2023/10/19 01:01:45;;;;;;;95.82;45.83;;;7.30;99.90;;;;;;4999672;28;20026;-61
2023/10/19 01:04:14;;;;;;;96.78;45.08;;;7.30;99.90;;;;;;4999173;28;20026;-63
2023/10/19 01:06:43;;;;;;;100.85;46.00;;;7.40;99.90;;;;;;4995111;28;20034;-61
2023/10/19 01:09:14;;;;;;;104.88;47.67;;;7.40;99.90;;;;;;4994310;28;20119;-61
2023/10/19 01:11:49;;;;;;;108.72;48.22;;;7.40;99.90;;;;;;5000354;28;20026;-62
2023/10/19 01:14:27;;;;;;;110.38;46.17;;;7.40;99.90;;;;;;4999742;28;20027;-62
2023/10/19 01:16:56;;;;;;;124.30;49.42;;;7.40;99.90;;;;;;4998727;28;20030;-62
2023/10/19 01:19:23;;;;;;;116.72;46.42;;;7.50;99.90;;;;;;4995626;28;20049;-60
2023/10/19 01:21:53;;;;;;;95.95;45.88;;;7.40;99.90;;;;;;4998971;28;20049;-61
2023/10/19 01:24:29;;;;;;;85.03;42.08;;;7.50;99.90;;;;;;4997353;28;20513;-60
2023/10/19 01:26:56;;;;;;;110.90;43.20;;;7.50;99.90;;;;;;5001642;28;20041;-61
2023/10/19 01:29:26;;;;;;;101.68;42.95;;;7.50;99.90;;;;;;5000230;28;20793;-61
2023/10/19 01:32:11;;;;;;;91.32;42.97;;;7.50;99.90;;;;;;4999932;28;20038;-60
2023/10/19 01:34:37;;;;;;;93.13;42.08;;;7.50;99.90;;;;;;4997572;28;20443;-60
2023/10/19 01:37:04;;;;;;;94.35;44.58;;;7.50;99.90;;;;;;4999649;28;20114;-61
2023/10/19 01:39:38;;;;;;;84.88;42.67;;;7.50;99.90;;;;;;4998983;28;20038;-60
2023/10/19 01:42:05;;;;;;;98.00;43.22;;;7.50;99.90;;;;;;4997558;28;20030;-61
2023/10/19 01:44:31;;;;;;;92.47;42.97;;;7.50;99.90;;;;;;4997025;28;20022;-62
2023/10/19 01:46:57;;;;;;;88.25;44.38;;;7.50;99.90;;;;;;4996075;28;20085;-61
2023/10/19 01:49:26;;;;;;;80.55;42.42;;;7.50;99.90;;;;;;4997119;28;20061;-61
2023/10/19 01:51:53;;;;;;;82.75;42.38;;;7.40;99.90;;;;;;5000128;28;20029;-62
2023/10/19 01:54:23;;;;;;;76.88;41.42;;;7.40;99.90;;;;;;4996031;28;20045;-61
2023/10/19 01:56:56;;;;;;;81.00;41.45;;;7.40;99.90;;;;;;4997298;28;20121;-60
2023/10/19 01:59:27;;;;;;;80.13;41.17;;;7.40;99.90;;;;;;4997530;28;20033;-61
2023/10/19 02:01:54;;;;;;;;;;;7.40;99.90;;;;;;4998771;28;20092;-61
2023/10/19 02:04:21;;;;;;;82.93;42.15;;;7.40;99.90;;;;;;4998789;28;19917;-61
2023/10/19 02:06:48;;;;;;;74.05;40.55;;;7.40;99.90;;;;;;4998691;28;20850;-60
2023/10/19 02:09:21;;;;;;;75.65;41.83;;;7.50;99.90;;;;;;4996869;28;20025;-61
2023/10/19 02:11:48;;;;;;;74.60;41.75;;;7.40;99.90;;;;;;4999543;28;20418;-60
2023/10/19 02:14:15;;;;;;;75.85;40.83;;;7.50;99.90;;;;;;4996769;28;20114;-61
2023/10/19 02:16:47;;;;;;;76.45;40.22;;;7.40;99.90;;;;;;4997402;28;20026;-61
2023/10/19 02:19:13;;;;;;;77.35;40.70;;;7.40;99.90;;;;;;4997666;28;20026;-62
2023/10/19 02:21:40;;;;;;;71.20;40.97;;;7.40;99.90;;;;;;4997603;28;20030;-61
2023/10/19 02:24:14;;;;;;;73.25;40.47;;;7.40;99.90;;;;;;4996916;28;20026;-62
2023/10/19 02:26:40;;;;;;;83.90;40.63;;;7.40;99.90;;;;;;4997759;28;20019;-61
2023/10/19 02:29:12;;;;;;;84.80;42.92;;;7.40;99.90;;;;;;4994097;28;20037;-60
2023/10/19 02:31:39;;;;;;;78.32;42.15;;;7.40;99.90;;;;;;4997959;28;20034;-61
2023/10/19 02:34:11;;;;;;;75.95;41.65;;;7.40;99.90;;;;;;4998740;28;20130;-61
2023/10/19 02:36:38;;;;;;;76.80;41.17;;;7.50;99.90;;;;;;5000914;28;20555;-60
2023/10/19 02:39:09;;;;;;;93.25;42.28;;;7.40;99.90;;;;;;4995803;28;20520;-61
2023/10/19 02:41:39;;;;;;;;;;;7.40;99.90;;;;;;4998190;28;20057;-62
2023/10/19 02:44:30;;;;;;;72.88;39.55;;;7.50;99.90;;;;;;4994466;28;19910;-61
2023/10/19 02:46:59;;;;;;;79.65;41.78;;;7.50;99.90;;;;;;4997391;28;20058;-60
2023/10/19 02:49:25;;;;;;;83.30;42.33;;;7.50;99.90;;;;;;5000591;28;20041;-61
2023/10/19 02:51:53;;;;;;;100.30;43.75;;;7.40;99.90;;;;;;5000039;28;20030;-61
2023/10/19 02:54:30;;;;;;;81.70;40.90;;;7.50;99.90;;;;;;4996146;28;20041;-61
2023/10/19 02:56:56;;;;;;;97.60;41.90;;;7.40;99.90;;;;;;4999434;28;20021;-61
2023/10/19 02:59:24;;;;;;;90.22;45.28;;;7.40;99.90;;;;;;4996892;28;20034;-60
2023/10/19 03:02:17;;;;;;;88.25;43.78;;;7.40;99.90;;;;;;4997836;28;20123;-61
2023/10/19 03:04:43;;;;;;;92.20;43.35;;;7.50;99.90;;;;;;4999336;28;20571;-61
2023/10/19 03:07:12;;;;;;;85.40;42.15;;;7.50;99.90;;;;;;4994700;28;20121;-61
2023/10/19 03:09:48;;;;;;;98.07;42.72;;;7.40;99.90;;;;;;4994399;28;20061;-61
2023/10/19 03:12:14;;;;;;;81.00;42.88;;;7.50;99.90;;;;;;4992926;28;20029;-61
2023/10/19 03:14:43;;;;;;;75.25;40.30;;;7.40;99.90;;;;;;4996735;28;20022;-61
2023/10/19 03:17:10;;;;;;;80.68;41.25;;;7.50;99.90;;;;;;4999927;28;20047;-60
2023/10/19 03:19:35;;;;;;;76.15;41.55;;;7.50;99.90;;;;;;5010520;28;20061;-62
2023/10/19 03:22:01;;;;;;;78.43;42.28;;;7.40;99.90;;;;;;4996608;28;20073;-62
2023/10/19 03:24:36;;;;;;;80.43;41.08;;;7.50;99.90;;;;;;4998328;28;20034;-61
2023/10/19 03:27:21;;;;;;;81.20;41.20;;;7.50;99.90;;;;;;4994969;28;20069;-61
2023/10/19 03:29:53;;;;;;;82.47;40.50;;;7.40;99.90;;;;;;4998006;28;20018;-62
2023/10/19 03:32:22;;;;;;;72.32;41.08;;;7.50;99.90;;;;;;4994084;28;20034;-61
2023/10/19 03:34:48;;;;;;;82.38;40.92;;;7.40;99.90;;;;;;4995711;28;20194;-61
2023/10/19 03:37:14;;;;;;;82.55;41.65;;;7.40;99.90;;;;;;4995420;28;20065;-62
2023/10/19 03:39:41;;;;;;;78.65;42.15;;;7.40;99.90;;;;;;4995981;28;20126;-62
2023/10/19 03:42:13;;;;;;;74.70;41.40;;;7.40;99.90;;;;;;4998975;28;20018;-61
2023/10/19 03:47:55;;;;;;;84.75;43.75;;;7.40;99.90;;;;;;4996433;28;20023;-62
2023/10/19 03:50:06;;;;;;;85.43;44.78;;;7.40;99.90;;;;;;4994050;28;20018;-61
2023/10/19 03:52:32;;;;;;;84.65;44.60;;;7.40;99.90;;;;;;4996218;28;20111;-62
2023/10/19 03:54:57;;;;;;;79.05;43.97;;;7.40;99.90;;;;;;4997744;28;20030;-61
2023/10/19 03:57:24;;;;;;;86.10;44.38;;;7.40;99.90;;;;;;4997129;28;20034;-60
2023/10/19 03:59:56;;;;;;;90.97;44.65;;;7.40;99.90;;;;;;4995231;28;20381;-62
2023/10/19 04:02:28;;;;;;;97.22;43.75;;;7.40;99.90;;;;;;4995751;28;20026;-61
2023/10/19 04:04:55;;;;;;;88.05;43.83;;;7.40;99.90;;;;;;4995303;28;20026;-62
2023/10/19 04:07:21;;;;;;;88.78;44.20;;;7.40;99.90;;;;;;4996292;28;20058;-63
2023/10/19 04:12:35;;;;;;;87.93;44.15;;;7.40;99.90;;;;;;5002298;28;20030;-62
2023/10/19 04:17:42;;;;;;;76.80;43.58;;;7.40;99.90;;;;;;5001722;28;20018;-62
2023/10/19 04:20:42;;;;;;;90.85;44.65;;;7.40;99.90;;;;;;5000723;28;20026;-61
2023/10/19 04:22:57;;;;;;;81.80;43.33;;;7.40;99.90;;;;;;4998776;28;20026;-61
2023/10/19 04:25:25;;;;;;;97.55;44.08;;;7.40;99.90;;;;;;5000950;28;20061;-61
2023/10/19 04:27:51;;;;;;;83.43;42.60;;;7.40;99.90;;;;;;5001536;28;20019;-62
2023/10/19 04:30:26;;;;;;;76.95;42.20;;;7.40;99.90;;;;;;5004114;28;20531;-62
2023/10/19 04:32:53;;;;;;;88.32;44.45;;;7.40;99.90;;;;;;5001406;28;20014;-62
2023/10/19 04:35:22;;;;;;;80.40;42.53;;;7.40;99.90;;;;;;5002684;28;20061;-61
2023/10/19 04:37:52;;;;;;;76.45;43.97;;;7.40;99.90;;;;;;4999018;28;20080;-60
2023/10/19 04:40:26;;;;;;;74.60;41.90;;;7.40;99.90;;;;;;4998418;28;20105;-61
2023/10/19 04:42:58;;;;;;;79.65;42.65;;;7.40;99.90;;;;;;4999931;28;20099;-61
2023/10/19 04:45:23;;;;;;;82.78;43.65;;;7.30;99.90;;;;;;4998059;28;20054;-62
2023/10/19 04:47:52;;;;;;;79.65;42.90;;;7.40;99.90;;;;;;4999151;28;20068;-61
2023/10/19 04:50:18;;;;;;;83.95;43.60;;;7.30;99.90;;;;;;5002435;28;20045;-61
2023/10/19 04:52:44;;;;;;;89.53;46.33;;;7.30;99.90;;;;;;5001051;28;20053;-62
2023/10/19 04:55:09;;;;;;;82.90;43.97;;;7.40;99.90;;;;;;4997160;28;20030;-60
2023/10/19 04:57:35;;;;;;;81.78;45.05;;;7.40;99.90;;;;;;4999658;28;20026;-60
2023/10/19 05:00:01;;;;;;;79.85;43.33;;;7.30;99.90;;;;;;5000453;28;20022;-61
2023/10/19 05:02:27;;;;;;;82.68;43.92;;;7.40;99.90;;;;;;5000176;28;20025;-61
2023/10/19 05:04:53;;;;;;;73.97;43.45;;;7.30;99.90;;;;;;4993831;28;20030;-62
2023/10/19 05:07:19;;;;;;;83.97;44.03;;;7.40;99.90;;;;;;4997938;28;20038;-60
2023/10/19 05:09:45;;;;;;;82.20;44.30;;;7.40;99.90;;;;;;4999349;28;20050;-62
2023/10/19 05:12:14;;;;;;;86.22;44.95;;;7.40;99.90;;;;;;5001741;28;20029;-60
2023/10/19 05:14:41;;;;;;;84.50;45.15;;;7.40;99.90;;;;;;5001615;28;20022;-60
2023/10/19 05:17:08;;;;;;;84.00;44.60;;;7.40;99.90;;;;;;4998092;28;20041;-61
2023/10/19 05:19:35;;;;;;;87.90;47.05;;;7.40;99.90;;;;;;5001401;28;20037;-60
2023/10/19 05:22:02;;;;;;;86.78;46.55;;;7.30;99.90;;;;;;4998848;28;20788;-61
2023/10/19 05:24:28;;;;;;;92.07;46.22;;;7.30;99.90;;;;;;4998285;28;20033;-60
2023/10/19 05:26:54;;;;;;;86.93;46.75;;;7.30;99.90;;;;;;5000686;28;20022;-62
2023/10/19 05:29:20;;;;;;;82.55;45.00;;;7.40;99.90;;;;;;4999732;28;20031;-61
2023/10/19 05:31:46;;;;;;;94.57;49.25;;;7.30;99.90;;;;;;5002475;28;20552;-61
2023/10/19 05:34:12;;;;;;;90.70;45.45;;;7.40;99.90;;;;;;5000173;28;20030;-61
2023/10/19 05:36:39;;;;;;;92.25;46.15;;;7.30;99.90;;;;;;5000041;28;20041;-61
2023/10/19 05:39:07;;;;;;;87.07;47.30;;;7.30;99.90;;;;;;4999297;28;20026;-60
2023/10/19 05:41:34;;;;;;;92.85;45.92;;;7.30;99.90;;;;;;4998666;28;20027;-60
2023/10/19 05:43:59;;;;;;;86.65;47.83;;;7.30;99.90;;;;;;4996640;28;20041;-60
2023/10/19 05:46:25;;;;;;;97.57;47.53;;;7.30;99.90;;;;;;5000855;28;20030;-61
2023/10/19 05:48:53;;;;;;;96.95;47.35;;;7.40;99.90;;;;;;4999190;28;20576;-60
2023/10/19 05:51:19;;;;;;;88.05;46.03;;;7.30;99.90;;;;;;5000519;28;20061;-61
2023/10/19 05:53:44;;;;;;;94.15;46.75;;;7.30;99.90;;;;;;5002785;28;20031;-62
2023/10/19 05:56:13;;;;;;;100.60;48.50;;;7.40;99.90;;;;;;4997461;28;20030;-61
2023/10/19 05:58:39;;;;;;;89.97;48.08;;;7.40;99.90;;;;;;4998936;28;20149;-61
2023/10/19 06:01:04;;;;;;;100.70;48.40;;;7.40;99.90;;;;;;4994943;28;20558;-61
2023/10/19 06:03:30;;;;;;;96.07;48.08;;;7.30;99.90;;;;;;5001072;28;20109;-61
2023/10/19 06:05:56;;;;;;;93.05;46.28;;;7.40;99.90;;;;;;5000249;28;20533;-60
2023/10/19 06:08:25;;;;;;;93.10;48.70;;;7.40;99.90;;;;;;5001134;28;20414;-60
2023/10/19 06:10:52;;;;;;;95.72;49.22;;;7.40;99.90;;;;;;4997358;28;20066;-61
2023/10/19 06:13:18;;;;;;;102.03;49.38;;;7.40;99.90;;;;;;4998263;28;20493;-61
2023/10/19 06:15:44;;;;;;;97.63;48.00;;;7.40;99.90;;;;;;5001136;28;20045;-61
2023/10/19 06:18:10;;;;;;;97.30;48.63;;;7.40;99.90;;;;;;5000508;28;20027;-61
2023/10/19 06:20:36;;;;;;;90.45;46.45;;;7.40;99.90;;;;;;4999485;28;20088;-59
2023/10/19 06:23:05;;;;;;;93.25;48.30;;;7.40;99.90;;;;;;4999454;28;20505;-61
2023/10/19 06:25:32;;;;;;;103.50;48.65;;;7.40;99.90;;;;;;4997977;28;20026;-61
2023/10/19 06:27:59;;;;;;;101.47;47.70;;;7.40;99.90;;;;;;4999553;28;20030;-61
2023/10/19 06:30:26;;;;;;;100.25;48.45;;;7.50;99.90;;;;;;4997655;28;20768;-60
2023/10/19 06:32:53;;;;;;;98.43;49.42;;;7.50;99.90;;;;;;4996766;28;20072;-60
2023/10/19 06:35:19;;;;;;;97.20;49.53;;;7.50;99.90;;;;;;4998018;28;20028;-60
2023/10/19 06:37:45;;;;;;;96.60;48.85;;;7.50;99.90;;;;;;5000109;28;20060;-61
2023/10/19 06:40:14;;;;;;;99.95;48.45;;;7.50;99.90;;;;;;4998200;28;20038;-60
2023/10/19 06:42:45;;;;;;;101.88;50.50;;;7.50;99.90;;;;;;4996009;28;20496;-60
2023/10/19 06:45:13;;;;;;;97.35;47.88;;;7.50;99.90;;;;;;4998630;28;20033;-61
2023/10/19 06:47:49;;;;;;;100.25;48.83;;;7.60;99.90;;;;;;4997610;28;20029;-60
2023/10/19 06:50:17;;;;;;;98.07;45.90;;;7.60;99.90;;;;;;5000309;28;20235;-60
2023/10/19 06:52:44;;;;;;;95.90;47.47;;;7.60;99.90;;;;;;4999423;28;20508;-60
2023/10/19 06:55:14;;;;;;;102.13;49.53;;;7.60;99.90;;;;;;4995551;28;20085;-60
2023/10/19 06:57:43;;;;;;;94.60;49.10;;;7.60;99.90;;;;;;4998099;28;20030;-60
2023/10/19 07:00:19;;;;;;;97.10;48.08;;;7.60;99.90;;;;;;4999177;28;20018;-60
2023/10/19 07:02:50;;;;;;;92.22;49.35;;;7.60;99.90;;;;;;4995313;28;20022;-61
2023/10/19 07:05:21;;;;;;;105.30;49.03;;;7.60;99.90;;;;;;4997331;28;20030;-61
2023/10/19 07:07:51;;;;;;;102.30;48.15;;;7.60;99.90;;;;;;4994979;28;20018;-60
2023/10/19 07:10:18;;;;;;;106.88;49.97;;;7.60;99.90;;;;;;4996156;28;20446;-61
2023/10/19 07:12:49;;;;;;;107.60;49.83;;;7.60;99.90;;;;;;4996271;28;20053;-61
2023/10/19 07:15:15;;;;;;;97.03;50.50;;;7.70;99.90;;;;;;4998204;28;20049;-61
2023/10/19 07:17:43;;;;;;;102.28;49.72;;;7.70;99.90;;;;;;4997966;28;20018;-61
2023/10/19 07:20:28;;;;;;;103.07;48.75;;;7.80;99.90;;;;;;4997790;28;20085;-59
2023/10/19 07:25:43;;;;;;;112.32;48.78;;;7.80;99.90;;;;;;4998904;28;20090;-61
2023/10/19 07:28:14;;;;;;;108.43;49.40;;;7.90;99.90;;;;;;4996990;28;20030;-61
2023/10/19 07:30:42;;;;;;;103.15;50.28;;;8.00;99.90;;;;;;4999097;28;20121;-61
2023/10/19 07:33:09;;;;;;;101.20;49.42;;;8.00;99.90;;;;;;4994906;28;20055;-59
2023/10/19 07:35:42;;;;;;;107.47;50.70;;;8.00;99.90;;;;;;5000807;28;20045;-61
2023/10/19 07:38:08;;;;;;;100.05;48.72;;;8.00;99.90;;;;;;4996074;28;20034;-60
2023/10/19 07:40:34;;;;;;;108.57;50.35;;;8.10;99.90;;;;;;4996731;28;20536;-60
2023/10/19 07:43:01;;;;;;;106.28;47.80;;;8.10;99.90;;;;;;4996378;28;20448;-60
2023/10/19 07:45:27;;;;;;;94.65;46.38;;;8.10;99.90;;;;;;4999456;28;20029;-60
2023/10/19 07:47:53;;;;;;;95.43;48.00;;;8.10;99.90;;;;;;5001896;28;20022;-60
2023/10/19 07:50:19;;;;;;;105.55;49.83;;;8.10;99.90;;;;;;5002090;28;20062;-61
2023/10/19 07:52:53;;;;;;;96.82;47.65;;;8.10;99.90;;;;;;5000846;28;20030;-61
2023/10/19 07:55:25;;;;;;;91.18;46.35;;;8.10;99.90;;;;;;4999820;28;20034;-61
2023/10/19 07:57:51;;;;;;;92.88;47.40;;;8.10;99.90;;;;;;4999383;28;20027;-61
2023/10/19 08:00:18;;;;;;;104.78;47.30;;;8.20;99.90;;;;;;4996380;28;20505;-61
2023/10/19 08:02:47;;;;;;;95.35;46.35;;;8.20;99.90;;;;;;4998672;28;20088;-61
2023/10/19 08:05:20;;;;;;;95.60;48.63;;;8.20;99.90;;;;;;4998782;28;20022;-60
2023/10/19 08:07:49;;;;;;;97.85;48.75;;;8.20;99.90;;;;;;4995324;28;20608;-61
2023/10/19 08:10:19;;;;;;;87.75;46.00;;;8.30;99.90;;;;;;4999488;28;20503;-60
2023/10/19 08:12:49;;;;;;;86.97;46.65;;;8.30;99.90;;;;;;4995887;28;20525;-60
2023/10/19 08:15:16;;;;;;;92.35;46.13;;;8.30;99.90;;;;;;5001094;28;20114;-60
2023/10/19 08:17:50;;;;;;;85.65;45.33;;;8.30;99.90;;;;;;4998475;28;20022;-62
2023/10/19 08:20:17;;;;;;;89.35;44.60;;;8.30;99.90;;;;;;5000500;28;20022;-61
2023/10/19 08:22:44;;;;;;;83.47;46.15;;;8.40;99.90;;;;;;5002810;28;20448;-62
2023/10/19 08:25:14;;;;;;;87.38;45.50;;;8.50;99.90;;;;;;5001511;28;20393;-60
2023/10/19 08:27:49;;;;;;;79.03;45.00;;;8.60;99.90;;;;;;4998731;28;20108;-62
2023/10/19 08:30:17;;;;;;;70.07;41.40;;;8.70;99.90;;;;;;5000022;28;20028;-61
2023/10/19 08:32:47;;;;;;;71.38;41.72;;;8.80;99.90;;;;;;4998533;28;20052;-61
2023/10/19 08:35:14;;;;;;;67.07;39.78;;;9.00;99.90;;;;;;4998761;28;20038;-60
2023/10/19 08:37:40;;;;;;;70.82;39.85;;;9.10;99.90;;;;;;5000403;28;20541;-61
2023/10/19 08:40:17;;;;;;;65.53;39.80;;;9.20;99.90;;;;;;5000208;28;20031;-61
2023/10/19 08:42:48;;;;;;;63.15;38.95;;;9.40;99.90;;;;;;4997070;28;20030;-60
2023/10/19 08:45:14;;;;;;;65.50;38.90;;;9.70;99.90;;;;;;4997659;28;20395;-60
2023/10/19 08:47:56;;;;;;;55.83;36.42;;;9.80;99.90;;;;;;4999221;28;20103;-61
2023/10/19 08:50:24;;;;;;;54.10;35.25;;;10.00;99.90;;;;;;4999581;28;20027;-61
2023/10/19 08:52:55;;;;;;;47.00;32.03;;;9.90;99.90;;;;;;5000645;28;20045;-61
2023/10/19 08:55:21;;;;;;;44.58;30.90;;;9.80;99.90;;;;;;5000991;28;20038;-61
2023/10/19 08:57:50;;;;;;;39.70;31.13;;;9.80;99.90;;;;;;5002087;28;20101;-60
2023/10/19 09:00:18;;;;;;;40.05;30.83;;;9.80;99.90;;;;;;5001940;28;20042;-61
2023/10/19 09:02:47;;;;;;;43.20;29.75;;;9.80;99.90;;;;;;5001251;28;20022;-60
2023/10/19 09:05:30;;;;;;;40.45;28.15;;;9.90;99.90;;;;;;5006392;28;20021;-62
2023/10/19 09:07:55;;;;;;;36.45;27.55;;;9.90;99.90;;;;;;5002117;28;20038;-61
2023/10/19 09:10:26;;;;;;;35.45;26.73;;;10.00;99.90;;;;;;5001163;28;20037;-61
2023/10/19 09:13:10;;;;;;;35.90;25.60;;;10.10;99.90;;;;;;4999050;28;20026;-61
2023/10/19 09:15:39;;;;;;;36.03;26.27;;;10.20;99.90;;;;;;5012342;28;20528;-60
2023/10/19 09:18:17;;;;;;;29.23;24.98;;;10.30;99.90;;;;;;4997548;28;20078;-61
2023/10/19 09:20:55;;;;;;;30.33;25.20;;;10.40;99.90;;;;;;4999899;28;20037;-61
2023/10/19 09:23:27;;;;;;;27.58;24.75;;;10.40;99.90;;;;;;5011026;28;20033;-61
2023/10/19 09:25:55;;;;;;;27.02;23.35;;;10.40;99.90;;;;;;5000371;28;20030;-62
2023/10/19 09:28:23;;;;;;;31.20;25.08;;;10.30;99.90;;;;;;4997969;28;20034;-61
2023/10/19 09:30:50;;;;;;;38.03;26.35;;;10.30;99.90;;;;;;4998245;28;20030;-61
2023/10/19 09:33:17;;;;;;;31.48;25.90;;;10.40;99.90;;;;;;4998692;28;20026;-61
2023/10/19 09:35:51;;;;;;;30.23;24.77;;;10.40;99.90;;;;;;4997733;28;20026;-62
2023/10/19 09:38:21;;;;;;;25.80;23.02;;;10.50;99.90;;;;;;4997848;28;20045;-62
2023/10/19 09:40:48;;;;;;;24.63;22.23;;;10.70;99.90;;;;;;5000481;28;20032;-61
2023/10/19 09:43:38;;;;;;;25.27;22.08;;;10.90;99.90;;;;;;4998801;28;20032;-61
2023/10/19 09:46:08;;;;;;;26.55;23.70;;;11.00;99.90;;;;;;5000006;28;20041;-61
2023/10/19 09:48:42;;;;;;;32.33;24.23;;;11.00;99.90;;;;;;4999754;28;20029;-62
2023/10/19 09:51:10;;;;;;;28.08;22.77;;;10.90;99.90;;;;;;5000985;28;20108;-60
2023/10/19 09:53:37;;;;;;;26.17;22.55;;;11.00;99.90;;;;;;5000748;28;20034;-62
2023/10/19 09:56:06;;;;;;;32.80;24.38;;;11.00;99.90;;;;;;4998484;28;20025;-61
2023/10/19 09:58:38;;;;;;;30.73;24.77;;;11.00;99.90;;;;;;4997733;28;20022;-60
2023/10/19 10:01:11;;;;;;;31.50;24.75;;;10.90;99.90;;;;;;4996424;28;20113;-62
2023/10/19 10:03:49;;;;;;;26.17;22.77;;;10.90;99.90;;;;;;4998480;28;20030;-61
2023/10/19 10:06:16;;;;;;;28.35;24.85;;;10.80;99.90;;;;;;4998554;28;20038;-62
2023/10/19 10:08:44;;;;;;;30.48;25.90;;;10.80;99.90;;;;;;4998267;28;20117;-61
2023/10/19 10:11:17;;;;;;;30.70;25.27;;;10.90;99.90;;;;;;4997692;28;20059;-61
2023/10/19 10:13:50;;;;;;;31.40;25.40;;;10.90;99.90;;;;;;4998301;28;20038;-61
2023/10/19 10:16:17;;;;;;;35.10;25.88;;;10.90;99.90;;;;;;4997517;28;20030;-62
2023/10/19 10:18:45;;;;;;;29.45;24.80;;;11.00;99.90;;;;;;4995127;28;20049;-61
2023/10/19 10:21:15;;;;;;;30.48;25.35;;;11.00;99.90;;;;;;4992472;28;20072;-62
2023/10/19 10:23:54;;;;;;;32.88;25.65;;;11.00;99.90;;;;;;4996694;28;20021;-61
2023/10/19 10:26:25;;;;;;;27.13;23.95;;;11.00;99.90;;;;;;4998337;28;20072;-62
2023/10/19 10:29:26;;;;;;;28.05;24.35;;;10.90;99.90;;;;;;4994991;28;20037;-61
2023/10/19 10:31:52;;;;;;;28.55;24.13;;;11.00;99.90;;;;;;4998497;28;20153;-60
2023/10/19 10:34:36;;;;;;;32.20;26.25;;;11.10;99.90;;;;;;4996939;28;20028;-61
2023/10/19 10:37:10;;;;;;;32.83;25.40;;;11.30;99.90;;;;;;4995898;28;20509;-61
2023/10/19 10:39:38;;;;;;;33.90;25.33;;;11.40;99.90;;;;;;4995007;28;20108;-62
2023/10/19 10:42:05;;;;;;;28.88;25.05;;;11.40;99.90;;;;;;4997319;28;20022;-62
2023/10/19 10:44:38;;;;;;;38.33;25.50;;;11.30;99.90;;;;;;4999075;28;20026;-61
2023/10/19 10:47:08;;;;;;;31.38;26.40;;;11.30;99.90;;;;;;4997454;28;20068;-61
2023/10/19 10:49:33;;;;;;;32.13;25.27;;;11.30;99.90;;;;;;4996852;28;20072;-61
2023/10/19 10:51:59;;;;;;;30.45;25.23;;;11.30;99.90;;;;;;4997627;28;20046;-61
2023/10/19 10:54:24;;;;;;;31.92;26.75;;;11.20;99.90;;;;;;4997578;28;20521;-61
2023/10/19 10:56:50;;;;;;;35.00;25.88;;;11.20;99.90;;;;;;4997710;28;20025;-61
2023/10/19 10:59:16;;;;;;;32.95;26.15;;;11.30;99.90;;;;;;4998702;28;20022;-62
2023/10/19 11:01:42;;;;;;;31.77;25.52;;;11.40;99.90;;;;;;4995154;28;20525;-62
2023/10/19 11:04:10;;;;;;;28.15;25.15;;;11.50;99.90;;;;;;4996687;28;20034;-60
2023/10/19 11:06:55;;;;;;;29.67;26.20;;;11.50;99.90;;;;;;4998010;28;20038;-61
2023/10/19 11:09:24;;;;;;;28.75;24.75;;;11.50;99.90;;;;;;4998590;28;20036;-61
2023/10/19 11:11:52;;;;;;;30.45;24.10;;;11.60;99.90;;;;;;5000418;28;20022;-61
2023/10/19 11:14:17;;;;;;;26.48;23.02;;;11.60;99.90;;;;;;4999765;28;20382;-62
2023/10/19 11:16:43;;;;;;;29.33;24.30;;;11.60;99.90;;;;;;4999471;28;20026;-61
2023/10/19 11:19:09;;;;;;;27.83;24.83;;;11.70;99.90;;;;;;5001400;28;20110;-61
2023/10/19 11:21:36;;;;;;;28.95;24.52;;;11.80;99.90;;;;;;4998216;28;20560;-62
2023/10/19 11:24:01;;;;;;;26.92;23.85;;;11.90;99.90;;;;;;5000194;28;20022;-61
2023/10/19 11:26:27;;;;;;;30.23;24.58;;;12.00;99.90;;;;;;4999891;28;20024;-61
2023/10/19 11:29:00;;;;;;;26.50;23.80;;;12.10;99.90;;;;;;4999741;28;20079;-62
2023/10/19 11:31:27;;;;;;;27.23;22.98;;;12.30;99.90;;;;;;4998611;28;20038;-60
2023/10/19 11:33:55;;;;;;;26.45;22.95;;;12.50;99.90;;;;;;4998875;28;20113;-61
2023/10/19 11:36:22;;;;;;;25.63;22.30;;;12.50;99.90;;;;;;4996169;28;20506;-61
2023/10/19 11:38:51;;;;;;;25.55;22.67;;;12.60;99.90;;;;;;4994972;28;20026;-61
2023/10/19 11:41:17;;;;;;;26.58;22.98;;;12.60;99.90;;;;;;4995742;28;20154;-61
2023/10/19 11:43:46;;;;;;;23.70;21.42;;;12.70;99.90;;;;;;4994524;28;20121;-60
2023/10/19 11:46:14;;;;;;;24.10;21.55;;;12.80;99.90;;;;;;4994591;28;20034;-62
2023/10/19 11:48:42;;;;;;;22.63;20.33;;;12.90;99.90;;;;;;4997127;28;20038;-62
2023/10/19 11:51:09;;;;;;;24.15;20.90;;;13.00;99.90;;;;;;4999972;28;20083;-61
2023/10/19 11:53:36;;;;;;;26.95;21.30;;;13.00;99.90;;;;;;4993023;28;20053;-62
2023/10/19 11:56:12;;;;;;;24.05;20.20;;;13.00;99.90;;;;;;4995833;28;20030;-62
2023/10/19 11:58:41;;;;;;;21.42;19.52;;;13.00;99.90;;;;;;4995813;28;20073;-62
2023/10/19 12:01:08;;;;;;;24.08;19.42;;;13.10;99.90;;;;;;4995456;28;20548;-62
2023/10/19 12:03:39;;;;;;;22.40;20.13;;;13.10;99.90;;;;;;4997945;28;20041;-61
2023/10/19 12:06:09;;;;;;;21.20;19.40;;;13.20;99.90;;;;;;5000054;28;20597;-62
2023/10/19 12:08:36;;;;;;;22.85;20.75;;;13.30;99.90;;;;;;5013696;28;20101;-62
2023/10/19 12:11:04;;;;;;;22.85;20.60;;;13.40;99.90;;;;;;4996346;28;20084;-61
2023/10/19 12:13:31;;;;;;;23.02;20.73;;;13.40;99.90;;;;;;4994240;28;20405;-61
2023/10/19 12:15:57;;;;;;;22.58;20.55;;;13.40;99.90;;;;;;4994203;28;20523;-62
2023/10/19 12:18:25;;;;;;;23.65;21.17;;;13.40;99.90;;;;;;4995455;28;20168;-61
2023/10/19 12:20:56;;;;;;;24.20;21.67;;;13.40;99.90;;;;;;4996333;28;20030;-61
2023/10/19 12:23:23;;;;;;;21.65;19.48;;;13.30;99.90;;;;;;5002827;28;20502;-61
2023/10/19 12:25:49;;;;;;;25.23;22.70;;;13.20;99.90;;;;;;4996745;28;20034;-60
2023/10/19 12:28:14;;;;;;;24.60;22.35;;;13.20;99.90;;;;;;4996714;28;20029;-62
2023/10/19 12:30:41;;;;;;;26.30;21.85;;;13.30;99.90;;;;;;5000257;28;20109;-61
2023/10/19 12:33:13;;;;;;;23.63;21.20;;;13.40;99.90;;;;;;4999342;28;20022;-62
2023/10/19 12:35:57;;;;;;;22.95;20.73;;;13.60;99.90;;;;;;5002520;28;20482;-62
2023/10/19 12:38:23;;;;;;;22.08;20.15;;;13.80;99.90;;;;;;4996611;28;20026;-62
2023/10/19 12:40:52;;;;;;;23.15;20.95;;;13.90;99.90;;;;;;4999169;28;20060;-61
2023/10/19 12:43:19;;;;;;;22.13;20.23;;;13.90;99.90;;;;;;5002248;28;20034;-62
2023/10/19 12:45:50;;;;;;;21.70;19.63;;;13.80;99.90;;;;;;4999584;28;20029;-60
2023/10/19 12:48:17;;;;;;;24.27;21.88;;;13.70;99.90;;;;;;5000385;28;20030;-61
2023/10/19 12:50:43;;;;;;;22.60;20.48;;;13.60;99.90;;;;;;4997505;28;20079;-62
2023/10/19 12:53:09;;;;;;;22.17;19.92;;;13.50;99.90;;;;;;5004061;28;20109;-61
2023/10/19 12:55:37;;;;;;;26.80;21.45;;;13.50;99.90;;;;;;5000468;28;20080;-61
2023/10/19 12:58:10;;;;;;;25.55;19.42;;;13.50;99.90;;;;;;4999819;28;20026;-61
2023/10/19 13:00:40;;;;;;;22.77;20.52;;;13.50;99.90;;;;;;4999621;28;20510;-61
2023/10/19 13:03:07;;;;;;;24.42;22.02;;;13.50;99.90;;;;;;4998857;28;20034;-62
2023/10/19 13:05:34;;;;;;;23.90;21.27;;;13.40;99.90;;;;;;5001739;28;20030;-61
2023/10/19 13:08:01;;;;;;;22.75;20.63;;;13.50;99.90;;;;;;5000481;28;20066;-62